createdAt,value
2018-11-10T00:01:55.651Z,3.10
2018-11-10T00:04:29.564Z,2.10
2018-11-10T00:07:03.356Z,2.63
2018-11-10T00:09:37.291Z,2.07
2018-11-10T00:12:11.341Z,2.50
2018-11-10T00:14:45.200Z,2.00
2018-11-10T00:17:18.905Z,2.10
2018-11-10T00:19:52.919Z,2.20
2018-11-10T00:22:26.751Z,1.93
2018-11-10T00:25:00.621Z,2.20
2018-11-10T00:27:34.413Z,2.00
2018-11-10T00:30:09.378Z,1.90
2018-11-10T00:32:43.984Z,1.80
2018-11-10T00:35:17.911Z,1.70
2018-11-10T00:37:51.728Z,2.07
2018-11-10T00:40:25.669Z,2.00
2018-11-10T00:42:59.585Z,2.17
2018-11-10T00:45:33.361Z,2.00
2018-11-10T00:48:07.325Z,1.87
2018-11-10T00:50:41.184Z,1.70
2018-11-10T00:53:15.218Z,1.70
2018-11-10T00:55:49.086Z,1.60
2018-11-10T00:58:23.081Z,1.63
2018-11-10T01:00:57.075Z,1.60
2018-11-10T01:03:31.056Z,1.87
2018-11-10T01:06:04.967Z,1.67
2018-11-10T01:08:38.744Z,2.00
2018-11-10T01:11:12.648Z,1.70
2018-11-10T01:13:46.622Z,2.17
2018-11-10T01:16:20.813Z,2.20
2018-11-10T01:18:54.711Z,2.17
2018-11-10T01:21:28.664Z,2.47
2018-11-10T01:24:02.687Z,2.63
2018-11-10T01:26:36.869Z,2.50
2018-11-10T01:29:10.879Z,3.17
2018-11-10T01:31:44.629Z,2.90
2018-11-10T01:34:18.529Z,3.13
2018-11-10T01:36:52.413Z,2.90
2018-11-10T01:39:26.327Z,3.33
2018-11-10T01:42:00.318Z,3.00
2018-11-10T01:44:34.039Z,2.93
2018-11-10T01:47:07.967Z,3.00
2018-11-10T01:49:41.852Z,2.97
2018-11-10T01:52:15.821Z,2.60
2018-11-10T01:54:49.753Z,2.73
2018-11-10T01:57:23.654Z,2.73
2018-11-10T01:59:57.475Z,2.90
2018-11-10T02:02:31.361Z,2.60
2018-11-10T02:05:05.401Z,3.10
2018-11-10T02:07:39.167Z,3.13
2018-11-10T02:10:13.323Z,3.27
2018-11-10T02:12:47.384Z,3.17
2018-11-10T02:15:21.917Z,3.60
2018-11-10T02:17:55.735Z,3.50
2018-11-10T02:20:29.633Z,3.47
2018-11-10T02:23:03.714Z,3.70
2018-11-10T02:25:37.704Z,3.43
2018-11-10T02:28:11.782Z,3.47
2018-11-10T02:30:45.889Z,3.30
2018-11-10T02:33:19.923Z,3.70
2018-11-10T02:35:53.753Z,3.77
2018-11-10T02:38:27.725Z,3.67
2018-11-10T02:41:01.478Z,3.40
2018-11-10T02:43:35.567Z,3.10
2018-11-10T02:46:09.521Z,3.27
2018-11-10T02:48:43.519Z,3.20
2018-11-10T02:51:17.375Z,3.00
2018-11-10T02:53:51.482Z,3.03
2018-11-10T02:56:25.336Z,3.20
2018-11-10T02:58:59.159Z,3.17
2018-11-10T03:01:33.034Z,3.10
2018-11-10T03:04:07.281Z,3.40
2018-11-10T03:06:41.160Z,3.20
2018-11-10T03:09:15.108Z,2.80
2018-11-10T03:11:48.945Z,2.90
2018-11-10T03:14:22.824Z,2.73
2018-11-10T03:16:56.796Z,2.93
2018-11-10T03:19:30.808Z,2.43
2018-11-10T03:22:04.758Z,2.20
2018-11-10T03:24:38.693Z,2.40
2018-11-10T03:27:12.494Z,2.33
2018-11-10T03:29:46.325Z,2.50
2018-11-10T03:32:21.269Z,2.73
2018-11-10T03:34:55.164Z,2.00
2018-11-10T03:37:29.067Z,2.27
2018-11-10T03:40:03.159Z,2.20
2018-11-10T03:42:37.445Z,1.90
2018-11-10T03:45:12.184Z,2.07
2018-11-10T03:47:46.167Z,2.20
2018-11-10T03:50:20.100Z,2.13
2018-11-10T03:52:53.933Z,2.20
2018-11-10T03:55:27.910Z,1.90
2018-11-10T03:58:01.812Z,2.07
2018-11-10T04:00:36.009Z,1.80
2018-11-10T04:03:09.879Z,1.83
2018-11-10T04:05:43.758Z,1.80
2018-11-10T04:08:17.741Z,1.67
2018-11-10T04:10:51.581Z,1.80
2018-11-10T04:13:25.639Z,2.00
2018-11-10T04:15:59.564Z,1.97
2018-11-10T04:18:33.599Z,1.77
2018-11-10T04:21:07.551Z,1.77
2018-11-10T04:23:41.391Z,2.03
2018-11-10T04:26:15.151Z,1.90
2018-11-10T04:28:49.048Z,1.60
2018-11-10T04:31:22.851Z,1.20
2018-11-10T04:33:56.742Z,1.50
2018-11-10T04:36:30.773Z,1.33
2018-11-10T04:39:06.287Z,1.50
2018-11-10T04:41:40.177Z,1.60
2018-11-10T04:44:13.803Z,1.30
2018-11-10T04:46:47.757Z,1.40
2018-11-10T04:49:21.745Z,1.10
2018-11-10T04:51:58.959Z,0.90
2018-11-10T04:54:32.780Z,1.00
2018-11-10T04:57:06.756Z,0.93
2018-11-10T04:59:40.466Z,0.87
2018-11-10T05:02:14.308Z,0.90
2018-11-10T05:04:48.215Z,0.90
2018-11-10T05:07:22.016Z,0.87
2018-11-10T05:09:55.941Z,1.00
2018-11-10T05:12:29.932Z,0.90
2018-11-10T05:15:03.719Z,0.80
2018-11-10T05:17:38.402Z,0.60
2018-11-10T05:20:12.187Z,0.87
2018-11-10T05:22:46.108Z,0.97
2018-11-10T05:25:19.985Z,1.00
2018-11-10T05:27:54.005Z,1.10
2018-11-10T05:30:28.021Z,1.10
2018-11-10T05:33:02.040Z,1.00
2018-11-10T05:35:35.870Z,0.77
2018-11-10T05:38:09.805Z,1.00
2018-11-10T05:40:43.744Z,1.30
2018-11-10T05:43:17.751Z,1.40
2018-11-10T05:45:51.756Z,1.10
2018-11-10T05:48:25.766Z,1.23
2018-11-10T05:50:59.654Z,1.37
2018-11-10T05:53:33.709Z,1.37
2018-11-10T05:56:08.475Z,1.50
2018-11-10T05:58:42.308Z,1.60
2018-11-10T06:01:16.215Z,1.40
2018-11-10T06:03:50.078Z,1.67
2018-11-10T06:06:23.997Z,1.83
2018-11-10T06:08:57.989Z,1.70
2018-11-10T06:11:31.768Z,1.63
2018-11-10T06:14:05.519Z,2.00
2018-11-10T06:16:39.614Z,1.67
2018-11-10T06:19:13.793Z,1.70
2018-11-10T06:21:47.596Z,1.97
2018-11-10T06:24:21.786Z,1.93
2018-11-10T06:26:55.805Z,1.57
2018-11-10T06:29:29.831Z,1.90
2018-11-10T06:32:03.835Z,1.60
2018-11-10T06:34:38.834Z,3.00
2018-11-10T06:37:12.887Z,1.63
2018-11-10T06:39:46.996Z,1.90
2018-11-10T06:42:21.057Z,2.10
2018-11-10T06:44:54.924Z,1.80
2018-11-10T06:47:28.827Z,1.93
2018-11-10T06:50:03.480Z,1.87
2018-11-10T06:52:37.327Z,1.43
2018-11-10T06:55:11.803Z,2.20
2018-11-10T06:57:45.772Z,1.80
2018-11-10T07:00:19.671Z,1.70
2018-11-10T07:02:54.456Z,1.80
2018-11-10T07:05:28.514Z,1.50
2018-11-10T07:08:03.681Z,1.77
2018-11-10T07:10:37.608Z,1.73
2018-11-10T07:13:11.695Z,1.60
2018-11-10T07:15:45.750Z,1.80
2018-11-10T07:18:26.597Z,1.33
2018-11-10T07:23:40.952Z,1.97
2018-11-10T07:26:14.847Z,1.63
2018-11-10T07:28:48.766Z,2.10
2018-11-10T07:31:22.713Z,1.80
2018-11-10T07:33:56.810Z,1.80
2018-11-10T07:36:31.190Z,1.63
2018-11-10T07:39:06.926Z,1.50
2018-11-10T07:41:41.043Z,2.00
2018-11-10T07:44:15.219Z,1.90
2018-11-10T07:46:49.265Z,1.80
2018-11-10T07:49:25.327Z,1.70
2018-11-10T07:51:59.553Z,1.97
2018-11-10T07:54:33.406Z,1.70
2018-11-10T07:57:08.265Z,1.60
2018-11-10T07:59:42.357Z,1.50
2018-11-10T08:05:34.217Z,1.87
2018-11-10T08:08:08.338Z,1.70
2018-11-10T08:10:42.384Z,1.83
2018-11-10T08:13:16.418Z,1.63
2018-11-10T08:16:02.044Z,1.67
2018-11-10T08:18:37.874Z,2.00
2018-11-10T08:33:14.971Z,1.57
2018-11-10T08:35:49.236Z,2.00
2018-11-10T08:44:20.721Z,1.50
2018-11-10T08:47:01.589Z,1.70
2018-11-10T08:59:10.749Z,1.43
2018-11-10T09:01:46.148Z,1.60
2018-11-10T09:04:20.979Z,1.60
2018-11-10T09:06:54.885Z,1.97
2018-11-10T09:09:28.771Z,1.70
2018-11-10T09:12:02.791Z,1.80
2018-11-10T09:14:36.641Z,1.80
2018-11-10T09:17:10.785Z,1.70
2018-11-10T09:19:44.855Z,2.17
2018-11-10T09:22:18.701Z,2.00
2018-11-10T09:24:52.501Z,1.97
2018-11-10T09:27:26.707Z,1.90
2018-11-10T09:30:00.632Z,2.03
2018-11-10T09:32:34.691Z,2.00
2018-11-10T09:35:09.652Z,2.17
2018-11-10T09:37:43.662Z,2.03
2018-11-10T09:40:17.866Z,2.20
2018-11-10T09:42:51.938Z,2.43
2018-11-10T09:45:25.843Z,2.57
2018-11-10T09:47:59.779Z,2.17
2018-11-10T09:50:33.573Z,2.40
2018-11-10T09:53:07.529Z,2.00
2018-11-10T09:55:41.516Z,2.20
2018-11-10T09:58:15.545Z,2.20
2018-11-10T10:00:49.540Z,2.37
2018-11-10T10:03:23.426Z,2.33
2018-11-10T10:05:57.503Z,2.13
2018-11-10T10:08:31.428Z,2.27
2018-11-10T10:11:05.255Z,2.50
2018-11-10T10:13:39.260Z,2.20
2018-11-10T10:16:13.206Z,2.13
2018-11-10T10:18:47.174Z,2.43
2018-11-10T10:21:20.983Z,1.80
2018-11-10T10:23:54.856Z,2.00
2018-11-10T10:26:28.657Z,2.33
2018-11-10T10:29:02.798Z,2.40
2018-11-10T10:31:36.612Z,1.97
2018-11-10T10:34:10.564Z,2.00
2018-11-10T10:36:44.224Z,1.93
2018-11-10T10:39:18.177Z,2.23
2018-11-10T10:41:52.017Z,2.23
2018-11-10T10:44:26.021Z,2.20
2018-11-10T10:46:59.842Z,2.83
2018-11-10T10:49:33.812Z,2.73
2018-11-10T10:52:07.692Z,2.73
2018-11-10T10:54:41.454Z,2.90
2018-11-10T10:57:15.715Z,3.47
2018-11-10T10:59:49.586Z,3.20
2018-11-10T11:02:28.824Z,3.60
2018-11-10T11:05:09.017Z,3.50
2018-11-10T11:07:42.947Z,4.20
2018-11-10T11:10:16.795Z,4.50
2018-11-10T11:12:50.901Z,4.30
2018-11-10T11:15:24.816Z,4.70
2018-11-10T11:17:58.682Z,5.27
2018-11-10T11:20:32.566Z,5.23
2018-11-10T11:23:06.750Z,4.90
2018-11-10T11:25:40.714Z,5.13
2018-11-10T11:28:14.687Z,5.33
2018-11-10T11:30:48.593Z,4.97
2018-11-10T11:33:22.490Z,5.00
2018-11-10T11:35:56.511Z,4.70
2018-11-10T11:38:30.422Z,5.13
2018-11-10T11:41:04.572Z,4.57
2018-11-10T11:43:38.649Z,4.23
2018-11-10T11:46:12.595Z,4.10
2018-11-10T11:48:46.424Z,4.60
2018-11-10T11:51:20.292Z,4.13
2018-11-10T11:53:54.165Z,4.10
2018-11-10T11:56:28.986Z,3.80
2018-11-10T11:59:02.988Z,3.93
2018-11-10T12:01:36.743Z,3.67
2018-11-10T12:04:10.771Z,3.40
2018-11-10T12:06:44.685Z,3.53
2018-11-10T12:09:18.650Z,2.80
2018-11-10T12:11:52.518Z,3.60
2018-11-10T12:14:26.513Z,4.03
2018-11-10T12:17:00.612Z,4.30
2018-11-10T12:19:34.379Z,4.30
2018-11-10T12:22:08.282Z,4.40
2018-11-10T12:24:42.109Z,4.47
2018-11-10T12:27:16.090Z,4.43
2018-11-10T12:29:49.793Z,4.80
2018-11-10T12:32:23.934Z,3.80
2018-11-10T12:34:57.792Z,4.00
2018-11-10T12:37:31.748Z,4.17
2018-11-10T12:40:06.537Z,4.07
2018-11-10T12:42:40.797Z,3.47
2018-11-10T12:45:14.851Z,4.00
2018-11-10T12:47:48.918Z,3.97
2018-11-10T12:50:22.687Z,3.43
2018-11-10T12:52:56.482Z,3.40
2018-11-10T12:55:30.441Z,3.47
2018-11-10T12:58:04.494Z,3.90
2018-11-10T13:00:38.391Z,5.17
2018-11-10T13:03:12.350Z,4.30
2018-11-10T13:05:46.313Z,4.47
2018-11-10T13:08:20.165Z,3.43
2018-11-10T13:10:54.107Z,4.13
2018-11-10T13:13:28.164Z,3.97
2018-11-10T13:16:02.067Z,4.03
2018-11-10T13:18:36.018Z,3.67
2018-11-10T13:21:09.983Z,4.07
2018-11-10T13:23:43.944Z,3.60
2018-11-10T13:26:17.753Z,3.70
2018-11-10T13:28:51.576Z,3.23
2018-11-10T13:31:25.674Z,3.43
2018-11-10T13:33:59.423Z,3.40
2018-11-10T13:36:33.326Z,3.13
2018-11-10T13:39:07.683Z,3.20
2018-11-10T13:41:41.793Z,3.60
2018-11-10T13:44:15.816Z,3.50
2018-11-10T13:46:49.664Z,3.67
2018-11-10T13:49:23.694Z,3.37
2018-11-10T13:51:57.787Z,3.87
2018-11-10T13:54:31.443Z,3.47
2018-11-10T13:57:05.819Z,3.50
2018-11-10T13:59:39.673Z,3.30
2018-11-10T14:02:13.566Z,3.40
2018-11-10T14:04:47.541Z,4.07
2018-11-10T14:07:21.620Z,3.97
2018-11-10T14:09:55.482Z,3.30
2018-11-10T14:12:29.631Z,3.40
2018-11-10T14:15:03.706Z,4.23
2018-11-10T14:17:37.511Z,3.33
2018-11-10T14:20:13.748Z,3.47
2018-11-10T14:22:47.864Z,3.50
2018-11-10T14:25:21.894Z,3.60
2018-11-10T14:27:55.871Z,3.17
2018-11-10T14:30:29.878Z,3.27
2018-11-10T14:33:03.969Z,3.33
2018-11-10T14:35:37.976Z,4.13
2018-11-10T14:38:11.808Z,4.27
2018-11-10T14:40:45.703Z,3.80
2018-11-10T14:43:19.580Z,3.57
2018-11-10T14:45:53.444Z,3.90
2018-11-10T14:48:27.310Z,4.17
2018-11-10T14:51:01.332Z,4.37
2018-11-10T14:53:35.184Z,4.80
2018-11-10T14:56:09.303Z,4.50
2018-11-10T14:58:43.051Z,5.03
2018-11-10T15:01:17.076Z,4.37
2018-11-10T15:03:50.886Z,4.90
2018-11-10T15:06:24.891Z,4.87
2018-11-10T15:08:58.639Z,5.47
2018-11-10T15:11:32.873Z,5.93
2018-11-10T15:14:06.977Z,6.73
2018-11-10T15:16:41.724Z,6.17
2018-11-10T15:19:15.626Z,5.83
2018-11-10T15:21:49.747Z,6.10
2018-11-10T15:24:23.724Z,6.57
2018-11-10T15:26:58.950Z,6.40
2018-11-10T15:29:32.926Z,7.73
2018-11-10T15:32:07.214Z,6.57
2018-11-10T15:34:41.256Z,7.43
2018-11-10T15:37:16.141Z,7.13
2018-11-10T15:39:50.118Z,7.07
2018-11-10T15:42:24.013Z,7.03
2018-11-10T15:44:57.854Z,7.43
2018-11-10T15:47:31.897Z,7.13
2018-11-10T15:50:06.238Z,7.70
2018-11-10T15:52:40.315Z,7.63
2018-11-10T15:55:14.616Z,8.10
2018-11-10T15:57:48.683Z,7.00
2018-11-10T16:00:22.619Z,7.97
2018-11-10T16:02:56.615Z,7.93
2018-11-10T16:05:30.559Z,8.67
2018-11-10T16:08:04.544Z,8.33
2018-11-10T16:10:38.500Z,9.10
2018-11-10T16:13:12.502Z,8.17
2018-11-10T16:15:46.885Z,8.63
2018-11-10T16:18:20.671Z,8.87
2018-11-10T16:20:54.543Z,8.77
2018-11-10T16:23:28.380Z,8.40
2018-11-10T16:26:02.450Z,9.27
2018-11-10T16:28:36.473Z,9.27
2018-11-10T16:31:10.302Z,9.63
2018-11-10T16:33:44.462Z,9.50
2018-11-10T16:36:18.494Z,10.00
2018-11-10T16:38:52.387Z,10.27
2018-11-10T16:41:26.522Z,10.30
2018-11-10T16:44:00.675Z,11.97
2018-11-10T16:46:34.589Z,12.10
2018-11-10T16:49:08.489Z,11.90
2018-11-10T16:51:42.442Z,11.30
2018-11-10T16:54:16.499Z,12.03
2018-11-10T16:56:50.359Z,12.67
2018-11-10T16:59:27.558Z,12.43
2018-11-10T17:02:01.798Z,13.17
2018-11-10T17:04:35.699Z,12.90
2018-11-10T17:07:09.620Z,13.93
2018-11-10T17:09:43.469Z,12.47
2018-11-10T17:12:17.354Z,13.43
2018-11-10T17:14:51.246Z,13.67
2018-11-10T17:17:25.032Z,13.30
2018-11-10T17:19:58.925Z,14.00
2018-11-10T17:22:33.020Z,13.10
2018-11-10T17:25:07.362Z,13.17
2018-11-10T17:27:41.817Z,12.43
2018-11-10T17:30:17.483Z,13.37
2018-11-10T17:32:51.346Z,12.77
2018-11-10T17:35:25.456Z,12.67
2018-11-10T17:37:59.360Z,12.17
2018-11-10T17:40:33.289Z,12.83
2018-11-10T17:43:07.243Z,12.63
2018-11-10T17:45:41.103Z,13.97
2018-11-10T17:48:15.111Z,13.40
2018-11-10T17:50:49.399Z,13.63
2018-11-10T17:53:23.327Z,12.80
2018-11-10T17:55:57.284Z,12.63
2018-11-10T17:58:31.333Z,13.43
2018-11-10T18:01:05.279Z,13.70
2018-11-10T18:03:39.082Z,13.93
2018-11-10T18:06:13.011Z,13.87
2018-11-10T18:08:46.908Z,14.00
2018-11-10T18:11:20.843Z,13.77
2018-11-10T18:13:54.794Z,13.83
2018-11-10T18:16:28.676Z,14.17
2018-11-10T18:19:02.997Z,13.87
2018-11-10T18:21:37.001Z,14.23
2018-11-10T18:24:10.964Z,14.10
2018-11-10T18:26:44.873Z,14.30
2018-11-10T18:29:18.809Z,13.93
2018-11-10T18:31:52.821Z,14.80
2018-11-10T18:34:26.772Z,15.20
2018-11-10T18:37:00.726Z,14.80
2018-11-10T18:39:34.964Z,15.53
2018-11-10T18:42:08.822Z,15.67
2018-11-10T18:44:42.664Z,14.83
2018-11-10T18:47:16.662Z,15.07
2018-11-10T18:49:50.524Z,15.20
2018-11-10T18:52:24.612Z,15.37
2018-11-10T18:54:58.570Z,16.47
2018-11-10T18:57:32.746Z,14.90
2018-11-10T19:00:08.051Z,15.10
2018-11-10T19:02:42.083Z,16.40
2018-11-10T19:05:17.003Z,15.03
2018-11-10T19:07:50.808Z,16.10
2018-11-10T19:10:24.653Z,16.80
2018-11-10T19:12:58.864Z,16.80
2018-11-10T19:15:32.628Z,15.90
2018-11-10T19:18:06.638Z,16.23
2018-11-10T19:20:40.432Z,16.13
2018-11-10T19:23:14.415Z,16.90
2018-11-10T19:25:48.270Z,17.33
2018-11-10T19:28:22.218Z,17.23
2018-11-10T19:30:56.104Z,17.20
2018-11-10T19:33:30.347Z,16.77
2018-11-10T19:36:04.142Z,17.10
2018-11-10T19:38:38.281Z,16.40
2018-11-10T19:41:12.323Z,16.03
2018-11-10T19:43:46.399Z,16.60
2018-11-10T19:46:20.420Z,15.60
2018-11-10T19:48:54.324Z,16.20
2018-11-10T19:51:28.390Z,15.80
2018-11-10T19:54:02.181Z,15.13
2018-11-10T19:56:36.040Z,14.97
2018-11-10T19:59:09.921Z,15.57
2018-11-10T20:01:44.017Z,16.33
2018-11-10T20:04:18.062Z,16.50
2018-11-10T20:06:52.056Z,16.10
2018-11-10T20:09:26.024Z,15.10
2018-11-10T20:12:00.117Z,15.13
2018-11-10T20:14:34.151Z,15.50
2018-11-10T20:17:13.159Z,15.93
2018-11-10T20:19:47.185Z,15.80
2018-11-10T20:22:21.388Z,15.70
2018-11-10T20:24:55.441Z,15.47
2018-11-10T20:27:29.619Z,15.80
2018-11-10T20:30:03.733Z,16.00
2018-11-10T20:32:37.973Z,14.83
2018-11-10T20:35:12.711Z,15.83
2018-11-10T20:37:47.167Z,15.83
2018-11-10T20:40:21.114Z,15.40
2018-11-10T20:42:55.091Z,16.00
2018-11-10T20:45:28.805Z,15.90
2018-11-10T20:48:03.023Z,15.33
2018-11-10T20:50:36.952Z,16.30
2018-11-10T20:53:10.952Z,15.53
2018-11-10T20:55:44.826Z,15.97
2018-11-10T20:58:18.710Z,15.87
2018-11-10T21:00:52.746Z,15.13
2018-11-10T21:03:26.842Z,16.27
2018-11-10T21:06:01.053Z,15.27
2018-11-10T21:08:34.822Z,15.67
2018-11-10T21:11:08.882Z,15.80
2018-11-10T21:13:42.735Z,15.83
2018-11-10T21:16:16.708Z,16.03
2018-11-10T21:18:50.732Z,16.97
2018-11-10T21:21:24.538Z,16.23
2018-11-10T21:23:58.582Z,16.40
2018-11-10T21:26:32.586Z,16.57
2018-11-10T21:29:06.561Z,16.93
2018-11-10T21:31:40.492Z,16.37
2018-11-10T21:34:14.513Z,15.83
2018-11-10T21:36:48.544Z,16.10
2018-11-10T21:39:22.709Z,16.73
2018-11-10T21:41:56.606Z,16.33
2018-11-10T21:44:30.647Z,16.73
2018-11-10T21:47:04.597Z,16.60
2018-11-10T21:49:38.784Z,17.10
2018-11-10T21:52:12.608Z,16.67
2018-11-10T21:54:46.498Z,17.33
2018-11-10T21:57:20.528Z,17.10
2018-11-10T21:59:54.562Z,17.13
2018-11-10T22:02:28.435Z,17.13
2018-11-10T22:05:02.201Z,18.30
2018-11-10T22:07:36.113Z,17.17
2018-11-10T22:10:11.847Z,17.97
2018-11-10T22:12:45.932Z,17.63
2018-11-10T22:15:21.373Z,18.00
2018-11-10T22:17:55.330Z,18.70
2018-11-10T22:20:29.464Z,18.13
2018-11-10T22:23:03.477Z,17.90
2018-11-10T22:25:37.496Z,18.27
2018-11-10T22:28:11.340Z,18.53
2018-11-10T22:30:46.130Z,18.10
2018-11-10T22:33:20.025Z,17.83
2018-11-10T22:35:54.037Z,17.93
2018-11-10T22:38:28.140Z,18.33
2018-11-10T22:41:02.337Z,17.80
2018-11-10T22:43:36.450Z,17.70
2018-11-10T22:46:10.318Z,18.77
2018-11-10T22:48:44.189Z,17.90
2018-11-10T22:51:18.469Z,18.03
2018-11-10T22:53:52.302Z,17.57
2018-11-10T22:56:26.247Z,17.60
2018-11-10T22:59:00.151Z,16.80
2018-11-10T23:01:34.547Z,17.93
2018-11-10T23:04:08.418Z,18.20
2018-11-10T23:06:42.309Z,17.10
2018-11-10T23:09:16.313Z,17.80
2018-11-10T23:11:50.250Z,16.57
2018-11-10T23:14:25.473Z,18.13
2018-11-10T23:16:59.504Z,17.30
2018-11-10T23:19:34.048Z,17.63
2018-11-10T23:22:08.011Z,17.80
2018-11-10T23:24:41.705Z,16.67
2018-11-10T23:27:15.697Z,15.73
2018-11-10T23:29:49.595Z,16.30
2018-11-10T23:32:23.510Z,16.33
2018-11-10T23:34:57.359Z,16.23
2018-11-10T23:37:31.295Z,16.90
2018-11-10T23:40:05.631Z,15.83
2018-11-10T23:42:39.927Z,16.30
2018-11-10T23:45:14.538Z,15.53
2018-11-10T23:47:48.516Z,17.10
2018-11-10T23:50:22.473Z,16.13
2018-11-10T23:52:56.562Z,16.20
2018-11-10T23:55:30.412Z,16.30
2018-11-10T23:58:04.475Z,16.63
